sensor_id;sensor_type;location;lat;lon;timestamp;pressure;altitude;pressure_sealevel;temperature;humidity
56182;BME280;51963;46.052;14.544;2023-01-25T00:02:04;99627.03;;;1.82;100.00
56182;BME280;51963;46.052;14.544;2023-01-25T00:04:29;99625.06;;;1.86;100.00
56182;BME280;51963;46.052;14.544;2023-01-25T00:06:55;99627.25;;;1.92;100.00
56182;BME280;51963;46.052;14.544;2023-01-25T00:09:21;99621.97;;;2.07;100.00
56182;BME280;51963;46.052;14.544;2023-01-25T00:11:47;99629.38;;;2.00;100.00
56182;BME280;51963;46.052;14.544;2023-01-25T00:14:13;99628.00;;;1.94;100.00
56182;BME280;51963;46.052;14.544;2023-01-25T00:16:39;99629.56;;;1.97;100.00
56182;BME280;51963;46.052;14.544;2023-01-25T00:19:06;99612.63;;;1.76;100.00
56182;BME280;51963;46.052;14.544;2023-01-25T00:21:32;99622.63;;;1.70;100.00
56182;BME280;51963;46.052;14.544;2023-01-25T00:24:01;99620.75;;;1.72;100.00
56182;BME280;51963;46.052;14.544;2023-01-25T00:26:31;99632.34;;;1.81;100.00
56182;BME280;51963;46.052;14.544;2023-01-25T00:28:56;99626.38;;;1.66;100.00
56182;BME280;51963;46.052;14.544;2023-01-25T00:31:26;99624.69;;;1.65;100.00
56182;BME280;51963;46.052;14.544;2023-01-25T00:34:00;99629.50;;;1.71;100.00
56182;BME280;51963;46.052;14.544;2023-01-25T00:38:54;99622.47;;;1.99;100.00
56182;BME280;51963;46.052;14.544;2023-01-25T00:41:21;99628.31;;;2.02;100.00
56182;BME280;51963;46.052;14.544;2023-01-25T00:43:47;99619.25;;;2.21;100.00
56182;BME280;51963;46.052;14.544;2023-01-25T00:46:16;99620.31;;;2.18;100.00
56182;BME280;51963;46.052;14.544;2023-01-25T00:48:42;99614.38;;;2.16;100.00
56182;BME280;51963;46.052;14.544;2023-01-25T00:51:07;99616.03;;;2.17;100.00
56182;BME280;51963;46.052;14.544;2023-01-25T00:53:33;99611.97;;;2.26;100.00
56182;BME280;51963;46.052;14.544;2023-01-25T00:55:58;99614.97;;;2.07;100.00
56182;BME280;51963;46.052;14.544;2023-01-25T00:58:24;99611.81;;;1.89;100.00
56182;BME280;51963;46.052;14.544;2023-01-25T01:00:51;99617.69;;;1.93;100.00
56182;BME280;51963;46.052;14.544;2023-01-25T01:03:16;99616.81;;;1.79;100.00
56182;BME280;51963;46.052;14.544;2023-01-25T01:05:44;99611.19;;;1.85;100.00
56182;BME280;51963;46.052;14.544;2023-01-25T01:08:10;99616.41;;;1.85;100.00
56182;BME280;51963;46.052;14.544;2023-01-25T01:10:37;99615.28;;;1.89;100.00
56182;BME280;51963;46.052;14.544;2023-01-25T01:13:03;99613.94;;;1.97;100.00
56182;BME280;51963;46.052;14.544;2023-01-25T01:15:29;99611.81;;;1.89;100.00
56182;BME280;51963;46.052;14.544;2023-01-25T01:17:54;99611.59;;;1.92;100.00
56182;BME280;51963;46.052;14.544;2023-01-25T01:20:20;99615.28;;;1.89;100.00
56182;BME280;51963;46.052;14.544;2023-01-25T01:22:45;99613.63;;;1.61;100.00
56182;BME280;51963;46.052;14.544;2023-01-25T01:25:11;99613.13;;;1.69;100.00
56182;BME280;51963;46.052;14.544;2023-01-25T01:27:37;99611.78;;;1.76;100.00
56182;BME280;51963;46.052;14.544;2023-01-25T01:30:03;99616.69;;;1.68;100.00
56182;BME280;51963;46.052;14.544;2023-01-25T01:32:29;99614.63;;;1.86;100.00
56182;BME280;51963;46.052;14.544;2023-01-25T01:34:54;99627.03;;;1.82;100.00
56182;BME280;51963;46.052;14.544;2023-01-25T01:37:20;99609.00;;;1.79;100.00
56182;BME280;51963;46.052;14.544;2023-01-25T01:39:46;99612.41;;;1.67;100.00
56182;BME280;51963;46.052;14.544;2023-01-25T01:42:11;99610.19;;;1.60;100.00
56182;BME280;51963;46.052;14.544;2023-01-25T01:44:42;99610.66;;;1.53;100.00
56182;BME280;51963;46.052;14.544;2023-01-25T01:47:11;99607.72;;;1.44;100.00
56182;BME280;51963;46.052;14.544;2023-01-25T01:49:38;99598.88;;;1.20;100.00
56182;BME280;51963;46.052;14.544;2023-01-25T01:52:12;99595.84;;;0.98;100.00
56182;BME280;51963;46.052;14.544;2023-01-25T01:54:41;99598.16;;;1.03;100.00
56182;BME280;51963;46.052;14.544;2023-01-25T01:57:12;99596.03;;;0.95;100.00
56182;BME280;51963;46.052;14.544;2023-01-25T01:59:41;99597.91;;;0.93;100.00
56182;BME280;51963;46.052;14.544;2023-01-25T02:02:07;99588.69;;;0.87;100.00
56182;BME280;51963;46.052;14.544;2023-01-25T02:04:33;99590.13;;;0.79;100.00
56182;BME280;51963;46.052;14.544;2023-01-25T02:07:02;99587.59;;;0.77;100.00
56182;BME280;51963;46.052;14.544;2023-01-25T02:09:31;99583.81;;;0.68;100.00
56182;BME280;51963;46.052;14.544;2023-01-25T02:11:59;99589.84;;;0.69;100.00
56182;BME280;51963;46.052;14.544;2023-01-25T02:14:26;99585.19;;;0.60;100.00
56182;BME280;51963;46.052;14.544;2023-01-25T02:16:52;99587.06;;;0.57;100.00
56182;BME280;51963;46.052;14.544;2023-01-25T02:22:20;99593.09;;;0.58;100.00
56182;BME280;51963;46.052;14.544;2023-01-25T02:25:12;99588.66;;;0.46;100.00
56182;BME280;51963;46.052;14.544;2023-01-25T02:27:40;99582.69;;;0.43;100.00
56182;BME280;51963;46.052;14.544;2023-01-25T02:30:08;99584.00;;;0.36;100.00
56182;BME280;51963;46.052;14.544;2023-01-25T02:32:33;99591.59;;;0.25;100.00
56182;BME280;51963;46.052;14.544;2023-01-25T02:34:59;99592.53;;;0.24;100.00
56182;BME280;51963;46.052;14.544;2023-01-25T02:37:25;99588.84;;;0.42;100.00
56182;BME280;51963;46.052;14.544;2023-01-25T02:39:50;99588.09;;;0.40;100.00
56182;BME280;51963;46.052;14.544;2023-01-25T02:42:17;99588.72;;;0.29;100.00
56182;BME280;51963;46.052;14.544;2023-01-25T02:44:42;99583.69;;;0.26;100.00
56182;BME280;51963;46.052;14.544;2023-01-25T02:47:08;99586.97;;;0.16;100.00
56182;BME280;51963;46.052;14.544;2023-01-25T02:49:34;99584.75;;;0.24;100.00
56182;BME280;51963;46.052;14.544;2023-01-25T02:52:00;99587.16;;;0.27;100.00
56182;BME280;51963;46.052;14.544;2023-01-25T02:54:26;99582.13;;;0.24;100.00
56182;BME280;51963;46.052;14.544;2023-01-25T02:56:51;99586.41;;;0.25;100.00
56182;BME280;51963;46.052;14.544;2023-01-25T02:59:20;99572.00;;;0.19;100.00
56182;BME280;51963;46.052;14.544;2023-01-25T03:01:50;99570.81;;;0.25;100.00
56182;BME280;51963;46.052;14.544;2023-01-25T03:04:17;99571.63;;;0.25;100.00
56182;BME280;51963;46.052;14.544;2023-01-25T03:06:42;99567.28;;;0.26;100.00
56182;BME280;51963;46.052;14.544;2023-01-25T03:09:09;99563.19;;;0.22;100.00
56182;BME280;51963;46.052;14.544;2023-01-25T03:11:36;99560.94;;;0.16;100.00
56182;BME280;51963;46.052;14.544;2023-01-25T03:14:02;99565.03;;;0.20;100.00
56182;BME280;51963;46.052;14.544;2023-01-25T03:16:29;99567.34;;;0.10;100.00
56182;BME280;51963;46.052;14.544;2023-01-25T03:18:54;99561.69;;;0.03;100.00
56182;BME280;51963;46.052;14.544;2023-01-25T03:21:22;99568.88;;;-0.02;100.00
56182;BME280;51963;46.052;14.544;2023-01-25T03:23:53;99567.38;;;-0.06;100.00
56182;BME280;51963;46.052;14.544;2023-01-25T03:26:22;99557.91;;;-0.07;100.00
56182;BME280;51963;46.052;14.544;2023-01-25T03:29:06;99569.25;;;-0.08;100.00
56182;BME280;51963;46.052;14.544;2023-01-25T03:31:35;99560.69;;;-0.10;100.00
56182;BME280;51963;46.052;14.544;2023-01-25T03:34:01;99567.38;;;-0.06;100.00
56182;BME280;51963;46.052;14.544;2023-01-25T03:36:31;99561.19;;;-0.04;100.00
56182;BME280;51963;46.052;14.544;2023-01-25T03:38:57;99567.38;;;-0.06;100.00
56182;BME280;51963;46.052;14.544;2023-01-25T03:41:22;99551.72;;;-0.05;100.00
56182;BME280;51963;46.052;14.544;2023-01-25T03:43:48;99555.31;;;-0.07;100.00
56182;BME280;51963;46.052;14.544;2023-01-25T03:46:16;99555.31;;;-0.07;100.00
56182;BME280;51963;46.052;14.544;2023-01-25T03:48:41;99559.50;;;-0.05;100.00
56182;BME280;51963;46.052;14.544;2023-01-25T03:51:07;99558.78;;;-0.07;100.00
56182;BME280;51963;46.052;14.544;2023-01-25T03:53:33;99564.78;;;-0.06;100.00
56182;BME280;51963;46.052;14.544;2023-01-25T03:56:08;99557.84;;;-0.06;100.00
56182;BME280;51963;46.052;14.544;2023-01-25T03:58:35;99553.28;;;-0.02;100.00
56182;BME280;51963;46.052;14.544;2023-01-25T04:01:01;99563.69;;;-0.02;100.00
56182;BME280;51963;46.052;14.544;2023-01-25T04:03:27;99554.22;;;-0.03;100.00
56182;BME280;51963;46.052;14.544;2023-01-25T04:05:54;99549.00;;;-0.03;100.00
56182;BME280;51963;46.052;14.544;2023-01-25T04:08:21;99552.50;;;-0.19;100.00
56182;BME280;51963;46.052;14.544;2023-01-25T04:10:51;99551.16;;;-0.10;100.00
56182;BME280;51963;46.052;14.544;2023-01-25T04:13:17;99545.47;;;-0.02;100.00
56182;BME280;51963;46.052;14.544;2023-01-25T04:15:43;99540.38;;;-0.04;100.00
56182;BME280;51963;46.052;14.544;2023-01-25T04:18:18;99542.88;;;-0.02;100.00
56182;BME280;51963;46.052;14.544;2023-01-25T04:20:44;99542.88;;;-0.02;100.00
56182;BME280;51963;46.052;14.544;2023-01-25T04:23:11;99543.13;;;0.24;100.00
56182;BME280;51963;46.052;14.544;2023-01-25T04:25:37;99547.28;;;0.26;100.00
56182;BME280;51963;46.052;14.544;2023-01-25T04:28:08;99545.16;;;0.33;100.00
56182;BME280;51963;46.052;14.544;2023-01-25T04:30:34;99542.94;;;0.41;100.00
56182;BME280;51963;46.052;14.544;2023-01-25T04:33:03;99548.03;;;0.43;100.00
56182;BME280;51963;46.052;14.544;2023-01-25T04:35:30;99538.53;;;0.56;100.00
56182;BME280;51963;46.052;14.544;2023-01-25T04:37:58;99539.63;;;0.67;100.00
56182;BME280;51963;46.052;14.544;2023-01-25T04:40:28;99547.38;;;0.68;100.00
56182;BME280;51963;46.052;14.544;2023-01-25T04:42:54;99532.38;;;0.72;100.00
56182;BME280;51963;46.052;14.544;2023-01-25T04:45:20;99540.94;;;0.74;100.00
56182;BME280;51963;46.052;14.544;2023-01-25T04:47:47;99541.94;;;0.86;100.00
56182;BME280;51963;46.052;14.544;2023-01-25T04:50:13;99538.59;;;0.84;100.00
56182;BME280;51963;46.052;14.544;2023-01-25T04:52:40;99538.88;;;0.79;100.00
56182;BME280;51963;46.052;14.544;2023-01-25T04:55:05;99541.00;;;0.87;100.00
56182;BME280;51963;46.052;14.544;2023-01-25T04:57:37;99544.00;;;0.81;100.00
56182;BME280;51963;46.052;14.544;2023-01-25T05:00:03;99541.94;;;0.86;100.00
56182;BME280;51963;46.052;14.544;2023-01-25T05:02:29;99541.59;;;1.05;100.00
56182;BME280;51963;46.052;14.544;2023-01-25T05:04:54;99545.06;;;1.06;100.00
56182;BME280;51963;46.052;14.544;2023-01-25T05:07:20;99551.94;;;1.07;100.00
56182;BME280;51963;46.052;14.544;2023-01-25T05:09:46;99547.41;;;1.23;100.00
56182;BME280;51963;46.052;14.544;2023-01-25T05:12:12;99552.91;;;1.19;100.00
56182;BME280;51963;46.052;14.544;2023-01-25T05:14:53;99558.03;;;1.20;100.00
56182;BME280;51963;46.052;14.544;2023-01-25T05:17:19;99555.09;;;1.12;100.00
56182;BME280;51963;46.052;14.544;2023-01-25T05:19:45;99561.97;;;1.13;100.00
56182;BME280;51963;46.052;14.544;2023-01-25T05:22:14;99550.59;;;1.14;100.00
56182;BME280;51963;46.052;14.544;2023-01-25T05:24:45;99552.63;;;1.23;100.00
56182;BME280;51963;46.052;14.544;2023-01-25T05:27:14;99543.88;;;1.24;100.00
56182;BME280;51963;46.052;14.544;2023-01-25T05:30:03;99554.28;;;1.24;100.00
56182;BME280;51963;46.052;14.544;2023-01-25T05:32:36;99551.63;;;1.39;100.00
56182;BME280;51963;46.052;14.544;2023-01-25T05:35:02;99556.13;;;1.50;100.00
56182;BME280;51963;46.052;14.544;2023-01-25T05:37:28;99551.78;;;1.63;100.00
56182;BME280;51963;46.052;14.544;2023-01-25T05:39:59;99543.22;;;1.61;100.00
56182;BME280;51963;46.052;14.544;2023-01-25T05:42:25;99530.50;;;1.56;100.00
56182;BME280;51963;46.052;14.544;2023-01-25T05:44:51;99533.78;;;1.73;100.00
56182;BME280;51963;46.052;14.544;2023-01-25T05:47:18;99537.72;;;1.66;100.00
56182;BME280;51963;46.052;14.544;2023-01-25T05:49:44;99533.53;;;1.63;100.00
56182;BME280;51963;46.052;14.544;2023-01-25T05:52:15;99534.13;;;1.54;100.00
56182;BME280;51963;46.052;14.544;2023-01-25T05:54:42;99535.88;;;1.40;100.00
56182;BME280;51963;46.052;14.544;2023-01-25T05:57:09;99528.91;;;1.41;100.00
56182;BME280;51963;46.052;14.544;2023-01-25T05:59:35;99534.13;;;1.54;100.00
56182;BME280;51963;46.052;14.544;2023-01-25T06:02:03;99537.88;;;1.50;100.00
56182;BME280;51963;46.052;14.544;2023-01-25T06:04:28;99538.34;;;1.56;100.00
56182;BME280;51963;46.052;14.544;2023-01-25T06:06:54;99539.19;;;1.70;100.00
56182;BME280;51963;46.052;14.544;2023-01-25T06:09:20;99545.66;;;1.77;100.00
56182;BME280;51963;46.052;14.544;2023-01-25T06:11:46;99536.47;;;1.71;100.00
56182;BME280;51963;46.052;14.544;2023-01-25T06:14:12;99546.72;;;1.87;100.00
56182;BME280;51963;46.052;14.544;2023-01-25T06:16:38;99542.97;;;1.92;100.00
56182;BME280;51963;46.052;14.544;2023-01-25T06:19:30;99543.69;;;1.94;100.00
56182;BME280;51963;46.052;14.544;2023-01-25T06:22:14;99536.50;;;1.97;100.00
56182;BME280;51963;46.052;14.544;2023-01-25T06:24:40;99535.03;;;2.06;100.00
56182;BME280;51963;46.052;14.544;2023-01-25T06:27:05;99541.81;;;2.22;100.00
56182;BME280;51963;46.052;14.544;2023-01-25T06:29:31;99539.63;;;2.15;100.00
56182;BME280;51963;46.052;14.544;2023-01-25T06:31:56;99536.41;;;2.25;100.00
56182;BME280;51963;46.052;14.544;2023-01-25T06:34:22;99533.56;;;2.15;100.00
56182;BME280;51963;46.052;14.544;2023-01-25T06:36:51;99528.78;;;2.22;100.00
56182;BME280;51963;46.052;14.544;2023-01-25T06:39:16;99536.72;;;2.33;100.00
56182;BME280;51963;46.052;14.544;2023-01-25T06:41:42;99530.44;;;2.23;100.00
56182;BME280;51963;46.052;14.544;2023-01-25T06:44:08;99535.56;;;2.24;100.00
56182;BME280;51963;46.052;14.544;2023-01-25T06:46:33;99533.38;;;2.31;100.00
56182;BME280;51963;46.052;14.544;2023-01-25T06:48:59;99525.41;;;2.32;100.00
56182;BME280;51963;46.052;14.544;2023-01-25T06:51:24;99522.28;;;2.40;100.00
56182;BME280;51963;46.052;14.544;2023-01-25T06:53:50;99521.03;;;2.33;100.00
56182;BME280;51963;46.052;14.544;2023-01-25T06:56:20;99525.53;;;2.31;100.00
56182;BME280;51963;46.052;14.544;2023-01-25T06:58:46;99529.81;;;2.32;100.00
56182;BME280;51963;46.052;14.544;2023-01-25T07:01:13;99527.41;;;2.29;100.00
56182;BME280;51963;46.052;14.544;2023-01-25T07:03:39;99522.63;;;1.97;100.00
56182;BME280;51963;46.052;14.544;2023-01-25T07:06:05;99521.91;;;2.20;100.00
56182;BME280;51963;46.052;14.544;2023-01-25T07:08:32;99513.13;;;2.22;100.00
56182;BME280;51963;46.052;14.544;2023-01-25T07:10:58;99518.00;;;2.39;100.00
56182;BME280;51963;46.052;14.544;2023-01-25T07:13:25;99511.25;;;2.24;100.00
56182;BME280;51963;46.052;14.544;2023-01-25T07:18:19;99512.44;;;2.44;100.00
56182;BME280;51963;46.052;14.544;2023-01-25T07:20:45;99510.88;;;2.54;100.00
56182;BME280;51963;46.052;14.544;2023-01-25T07:23:10;99510.34;;;2.49;100.00
56182;BME280;51963;46.052;14.544;2023-01-25T07:25:36;99515.63;;;2.36;100.00
56182;BME280;51963;46.052;14.544;2023-01-25T07:28:01;99508.94;;;2.32;100.00
56182;BME280;51963;46.052;14.544;2023-01-25T07:30:27;99505.50;;;2.18;100.00
56182;BME280;51963;46.052;14.544;2023-01-25T07:32:53;99503.50;;;2.35;100.00
56182;BME280;51963;46.052;14.544;2023-01-25T07:35:19;99492.34;;;2.70;100.00
56182;BME280;51963;46.052;14.544;2023-01-25T07:37:45;99496.91;;;2.79;100.00
56182;BME280;51963;46.052;14.544;2023-01-25T07:40:11;99498.16;;;2.87;100.00
56182;BME280;51963;46.052;14.544;2023-01-25T07:42:37;99501.69;;;2.86;100.00
56182;BME280;51963;46.052;14.544;2023-01-25T07:45:10;99497.69;;;2.93;100.00
56182;BME280;51963;46.052;14.544;2023-01-25T07:47:36;99497.56;;;2.83;100.00
56182;BME280;51963;46.052;14.544;2023-01-25T07:50:02;99505.31;;;2.72;100.00
56182;BME280;51963;46.052;14.544;2023-01-25T07:52:27;99502.72;;;2.72;100.00
56182;BME280;51963;46.052;14.544;2023-01-25T07:54:53;99501.03;;;2.95;100.00
56182;BME280;51963;46.052;14.544;2023-01-25T07:57:19;99501.88;;;2.96;100.00
56182;BME280;51963;46.052;14.544;2023-01-25T07:59:45;99503.50;;;3.10;100.00
56182;BME280;51963;46.052;14.544;2023-01-25T08:02:10;99499.34;;;3.07;100.00
56182;BME280;51963;46.052;14.544;2023-01-25T08:04:36;99500.81;;;2.98;100.00
56182;BME280;51963;46.052;14.544;2023-01-25T08:07:03;99501.44;;;3.02;100.00
56182;BME280;51963;46.052;14.544;2023-01-25T08:09:28;99501.81;;;3.08;100.00
56182;BME280;51963;46.052;14.544;2023-01-25T08:11:54;99504.78;;;3.40;100.00
56182;BME280;51963;46.052;14.544;2023-01-25T08:14:19;99497.94;;;3.50;100.00
56182;BME280;51963;46.052;14.544;2023-01-25T08:16:45;99496.16;;;3.50;100.00
56182;BME280;51963;46.052;14.544;2023-01-25T08:19:11;99499.19;;;3.33;100.00
56182;BME280;51963;46.052;14.544;2023-01-25T08:21:36;99498.13;;;3.35;100.00
56182;BME280;51963;46.052;14.544;2023-01-25T08:24:03;99504.47;;;3.20;100.00
56182;BME280;51963;46.052;14.544;2023-01-25T08:26:29;99504.13;;;3.49;100.00
56182;BME280;51963;46.052;14.544;2023-01-25T08:28:54;99503.19;;;3.61;100.00
56182;BME280;51963;46.052;14.544;2023-01-25T08:31:21;99505.06;;;3.48;100.00
56182;BME280;51963;46.052;14.544;2023-01-25T08:33:47;99497.38;;;3.58;100.00
56182;BME280;51963;46.052;14.544;2023-01-25T08:36:13;99502.31;;;3.38;100.00
56182;BME280;51963;46.052;14.544;2023-01-25T08:38:39;99504.31;;;3.34;100.00
56182;BME280;51963;46.052;14.544;2023-01-25T08:41:06;99505.66;;;3.16;100.00
56182;BME280;51963;46.052;14.544;2023-01-25T08:43:32;99498.66;;;3.16;100.00
56182;BME280;51963;46.052;14.544;2023-01-25T08:45:58;99504.06;;;3.37;100.00
56182;BME280;51963;46.052;14.544;2023-01-25T08:48:23;99503.59;;;3.32;100.00
56182;BME280;51963;46.052;14.544;2023-01-25T08:50:49;99506.31;;;3.31;100.00
56182;BME280;51963;46.052;14.544;2023-01-25T08:53:14;99503.44;;;3.22;100.00
56182;BME280;51963;46.052;14.544;2023-01-25T08:55:40;99497.81;;;3.16;100.00
56182;BME280;51963;46.052;14.544;2023-01-25T08:58:13;99495.19;;;3.16;100.00
56182;BME280;51963;46.052;14.544;2023-01-25T09:00:41;99493.97;;;3.08;100.00
56182;BME280;51963;46.052;14.544;2023-01-25T09:03:07;99500.38;;;3.04;100.00
56182;BME280;51963;46.052;14.544;2023-01-25T09:05:33;99490.94;;;2.90;100.00
56182;BME280;51963;46.052;14.544;2023-01-25T09:08:00;99492.25;;;2.96;100.00
56182;BME280;51963;46.052;14.544;2023-01-25T09:10:25;99492.47;;;2.93;100.00
56182;BME280;51963;46.052;14.544;2023-01-25T09:12:51;99492.25;;;2.96;100.00
56182;BME280;51963;46.052;14.544;2023-01-25T09:15:16;99488.25;;;3.03;100.00
56182;BME280;51963;46.052;14.544;2023-01-25T09:17:42;99479.47;;;3.04;100.00
56182;BME280;51963;46.052;14.544;2023-01-25T09:20:08;99491.38;;;3.08;100.00
56182;BME280;51963;46.052;14.544;2023-01-25T09:22:33;99482.81;;;3.06;100.00
56182;BME280;51963;46.052;14.544;2023-01-25T09:24:59;99487.00;;;3.09;100.00
56182;BME280;51963;46.052;14.544;2023-01-25T09:27:24;99474.69;;;2.98;100.00
56182;BME280;51963;46.052;14.544;2023-01-25T09:29:50;99488.47;;;3.00;100.00
56182;BME280;51963;46.052;14.544;2023-01-25T09:32:16;99478.88;;;3.01;100.00
56182;BME280;51963;46.052;14.544;2023-01-25T09:34:50;99484.31;;;2.98;100.00
56182;BME280;51963;46.052;14.544;2023-01-25T09:37:16;99474.91;;;2.95;100.00
56182;BME280;51963;46.052;14.544;2023-01-25T09:39:41;99473.97;;;2.96;100.00
56182;BME280;51963;46.052;14.544;2023-01-25T09:49:44;99460.69;;;2.99;100.00
56182;BME280;51963;46.052;14.544;2023-01-25T09:54:41;99465.25;;;3.08;100.00
56182;BME280;51963;46.052;14.544;2023-01-25T09:59:53;99462.75;;;3.07;100.00
56182;BME280;51963;46.052;14.544;2023-01-25T10:02:39;99458.13;;;3.11;100.00
56182;BME280;51963;46.052;14.544;2023-01-25T10:05:13;99467.53;;;3.13;100.00
56182;BME280;51963;46.052;14.544;2023-01-25T10:10:10;99461.00;;;3.19;100.00
56182;BME280;51963;46.052;14.544;2023-01-25T10:12:38;99462.44;;;3.23;100.00
56182;BME280;51963;46.052;14.544;2023-01-25T10:15:23;99458.38;;;3.19;100.00
56182;BME280;51963;46.052;14.544;2023-01-25T10:17:59;99446.00;;;3.10;100.00
56182;BME280;51963;46.052;14.544;2023-01-25T10:23:01;99441.44;;;3.00;100.00
56182;BME280;51963;46.052;14.544;2023-01-25T10:30:28;99439.78;;;2.99;100.00
56182;BME280;51963;46.052;14.544;2023-01-25T10:32:58;99435.78;;;3.06;100.00
56182;BME280;51963;46.052;14.544;2023-01-25T10:35:29;99435.94;;;3.16;100.00
56182;BME280;51963;46.052;14.544;2023-01-25T10:38:00;99427.16;;;3.17;100.00
56182;BME280;51963;46.052;14.544;2023-01-25T10:40:37;99422.97;;;3.15;100.00
56182;BME280;51963;46.052;14.544;2023-01-25T10:43:37;99414.91;;;3.18;100.00
56182;BME280;51963;46.052;14.544;2023-01-25T10:45:56;99413.97;;;3.19;100.00
56182;BME280;51963;46.052;14.544;2023-01-25T10:48:23;99398.03;;;3.22;100.00
56182;BME280;51963;46.052;14.544;2023-01-25T10:50:51;99404.28;;;3.44;100.00
56182;BME280;51963;46.052;14.544;2023-01-25T10:56:10;99388.97;;;3.62;100.00
56182;BME280;51963;46.052;14.544;2023-01-25T10:58:42;99386.72;;;3.80;100.00
56182;BME280;51963;46.052;14.544;2023-01-25T11:01:31;99387.66;;;3.90;100.00
56182;BME280;51963;46.052;14.544;2023-01-25T11:03:55;99383.03;;;3.94;100.00
56182;BME280;51963;46.052;14.544;2023-01-25T11:06:37;99373.59;;;4.14;100.00
56182;BME280;51963;46.052;14.544;2023-01-25T11:11:55;99366.00;;;4.00;100.00
56182;BME280;51963;46.052;14.544;2023-01-25T11:14:22;99359.72;;;4.02;100.00
56182;BME280;51963;46.052;14.544;2023-01-25T11:16:48;99348.41;;;3.90;100.00
56182;BME280;51963;46.052;14.544;2023-01-25T11:19:47;99346.50;;;3.92;100.00
56182;BME280;51963;46.052;14.544;2023-01-25T11:22:19;99343.41;;;3.99;100.00
56182;BME280;51963;46.052;14.544;2023-01-25T11:24:45;99333.16;;;4.07;100.00
56182;BME280;51963;46.052;14.544;2023-01-25T11:27:18;99328.50;;;4.22;100.00
56182;BME280;51963;46.052;14.544;2023-01-25T11:29:45;99329.06;;;4.25;100.00
56182;BME280;51963;46.052;14.544;2023-01-25T11:32:14;99330.50;;;4.30;100.00
56182;BME280;51963;46.052;14.544;2023-01-25T11:34:40;99334.09;;;4.17;100.00
56182;BME280;51963;46.052;14.544;2023-01-25T11:42:24;99319.81;;;4.21;100.00
56182;BME280;51963;46.052;14.544;2023-01-25T11:47:50;99309.13;;;4.13;100.00
56182;BME280;51963;46.052;14.544;2023-01-25T11:50:22;99305.06;;;4.20;100.00
56182;BME280;51963;46.052;14.544;2023-01-25T11:53:11;99302.94;;;4.14;100.00
56182;BME280;51963;46.052;14.544;2023-01-25T11:55:44;99294.97;;;4.16;100.00
56182;BME280;51963;46.052;14.544;2023-01-25T12:19:19;99252.59;;;4.85;100.00
56182;BME280;51963;46.052;14.544;2023-01-25T12:24:32;99246.81;;;4.82;100.00
56182;BME280;51963;46.052;14.544;2023-01-25T12:29:41;99234.53;;;4.82;100.00
56182;BME280;51963;46.052;14.544;2023-01-25T12:32:09;99231.28;;;4.69;100.00
56182;BME280;51963;46.052;14.544;2023-01-25T12:34:37;99220.88;;;4.58;100.00
56182;BME280;51963;46.052;14.544;2023-01-25T12:37:06;99226.75;;;4.50;100.00
56182;BME280;51963;46.052;14.544;2023-01-25T12:39:40;99218.13;;;4.38;100.00
56182;BME280;51963;46.052;14.544;2023-01-25T12:44:55;99203.66;;;4.22;100.00
56182;BME280;51963;46.052;14.544;2023-01-25T12:47:34;99203.66;;;4.22;100.00
56182;BME280;51963;46.052;14.544;2023-01-25T12:50:05;99197.41;;;4.35;100.00
56182;BME280;51963;46.052;14.544;2023-01-25T12:52:50;99202.41;;;4.38;100.00
56182;BME280;51963;46.052;14.544;2023-01-25T12:55:17;99185.28;;;4.34;100.00
56182;BME280;51963;46.052;14.544;2023-01-25T13:08:05;99175.31;;;4.70;100.00
56182;BME280;51963;46.052;14.544;2023-01-25T13:10:33;99175.75;;;4.75;100.00
56182;BME280;51963;46.052;14.544;2023-01-25T13:13:16;99173.47;;;4.61;100.00
56182;BME280;51963;46.052;14.544;2023-01-25T13:15:44;99175.19;;;4.50;100.00
56182;BME280;51963;46.052;14.544;2023-01-25T13:23:34;99169.41;;;4.47;100.00
56182;BME280;51963;46.052;14.544;2023-01-25T13:28:45;99173.03;;;4.13;100.00
56182;BME280;51963;46.052;14.544;2023-01-25T13:33:55;99171.81;;;4.17;100.00
56182;BME280;51963;46.052;14.544;2023-01-25T13:41:58;99166.38;;;4.09;100.00
56182;BME280;51963;46.052;14.544;2023-01-25T13:44:25;99167.63;;;3.93;100.00
56182;BME280;51963;46.052;14.544;2023-01-25T13:47:14;99170.41;;;3.92;100.00
56182;BME280;51963;46.052;14.544;2023-01-25T13:49:39;99165.06;;;3.82;100.00
56182;BME280;51963;46.052;14.544;2023-01-25T13:52:05;99175.78;;;3.79;100.00
56182;BME280;51963;46.052;14.544;2023-01-25T13:54:30;99166.81;;;3.60;100.00
56182;BME280;51963;46.052;14.544;2023-01-25T13:57:03;99176.66;;;3.68;100.00
56182;BME280;51963;46.052;14.544;2023-01-25T13:59:29;99170.97;;;3.63;100.00
56182;BME280;51963;46.052;14.544;2023-01-25T14:01:55;99162.72;;;3.67;100.00
56182;BME280;51963;46.052;14.544;2023-01-25T14:04:21;99167.66;;;3.61;100.00
56182;BME280;51963;46.052;14.544;2023-01-25T14:06:47;99164.53;;;3.67;100.00
56182;BME280;51963;46.052;14.544;2023-01-25T14:09:14;99161.56;;;3.60;100.00
56182;BME280;51963;46.052;14.544;2023-01-25T14:11:45;99163.47;;;3.58;100.00
56182;BME280;51963;46.052;14.544;2023-01-25T14:14:19;99167.53;;;3.51;100.00
56182;BME280;51963;46.052;14.544;2023-01-25T14:19:34;99165.91;;;3.27;100.00
56182;BME280;51963;46.052;14.544;2023-01-25T14:24:35;99158.94;;;3.16;100.00
56182;BME280;51963;46.052;14.544;2023-01-25T14:27:02;99160.94;;;3.13;100.00
56182;BME280;51963;46.052;14.544;2023-01-25T14:29:27;99149.56;;;3.02;100.00
56182;BME280;51963;46.052;14.544;2023-01-25T14:31:53;99155.88;;;3.00;100.00
56182;BME280;51963;46.052;14.544;2023-01-25T14:34:19;99154.31;;;2.86;100.00
56182;BME280;51963;46.052;14.544;2023-01-25T14:36:45;99159.19;;;2.90;100.00
56182;BME280;51963;46.052;14.544;2023-01-25T14:39:15;99150.66;;;2.88;100.00
56182;BME280;51963;46.052;14.544;2023-01-25T14:41:44;99152.16;;;2.91;100.00